KCAK/CAK METAR and TAF weather

Enter ICAO airport designator
Station Type Date Time Source
KCAK METAR 2019/08/19 22:51 UTC NOAA

KCAK 192251Z 27005KT 10SM FEW036 29/21 A3005 RMK AO2 SLP168 T02890206


Station Type Date Time Source
KCAK Decoded METAR 2019/08/19 22:51 UTC NOAA

AKRON-CANTON REGIONAL AIRPORT , OH, United States (KCAK) 40-55N 081-27W 377M
Aug 19, 2019 - 06:51 PM EDT / 2019.08.19 2251 UTC
Wind: from the W (270 degrees) at 6 MPH (5 KT):0
Visibility: 10 mile(s):0
Sky conditions: mostly clear
Temperature: 84.0 F (28.9 C)
Dew Point: 69.1 F (20.6 C)
Relative Humidity: 60%
Pressure (altimeter): 30.05 in. Hg (1017 hPa)
ob: KCAK 192251Z 27005KT 10SM FEW036 29/21 A3005 RMK AO2 SLP168 T02890206
cycle: 23

Station Type Date Time Source
KCAK TAF 2019/08/19 18:33 UTC NOAA

TAF KCAK 191731Z 1918/2018 21007KT P6SM SCT025
FM200100 00000KT P6SM FEW250
FM201700 18004KT P6SM BKN100

Example: see airport list